createdAt,value
2022-08-19T00:00:51.808Z,51.08
2022-08-19T00:03:19.025Z,51.09
2022-08-19T00:05:46.506Z,51.33
2022-08-19T00:08:13.591Z,51.49
2022-08-19T00:10:40.687Z,51.46
2022-08-19T00:13:07.803Z,51.54
2022-08-19T00:15:34.902Z,51.16
2022-08-19T00:18:01.958Z,51.71
2022-08-19T00:20:29.030Z,51.63
2022-08-19T00:22:56.530Z,51.80
2022-08-19T00:25:30.297Z,51.62
2022-08-19T00:27:57.853Z,52.04
2022-08-19T00:30:25.085Z,51.71
2022-08-19T00:32:52.273Z,51.71
2022-08-19T00:35:19.566Z,51.79
2022-08-19T00:37:46.660Z,51.97
2022-08-19T00:40:13.876Z,51.61
2022-08-19T00:42:41.042Z,52.13
2022-08-19T00:45:08.087Z,51.85
2022-08-19T00:47:35.132Z,52.05
2022-08-19T00:50:02.216Z,52.35
2022-08-19T00:52:30.047Z,52.01
2022-08-19T00:54:57.375Z,52.25
2022-08-19T00:57:24.437Z,52.13
2022-08-19T00:59:56.491Z,52.19
2022-08-19T01:02:29.119Z,52.33
2022-08-19T01:04:56.162Z,52.30
2022-08-19T01:07:23.246Z,52.29
2022-08-19T01:09:51.519Z,52.25
2022-08-19T01:12:18.619Z,52.53
2022-08-19T01:14:45.658Z,52.47
2022-08-19T01:17:12.704Z,52.39
2022-08-19T01:19:43.640Z,52.45
2022-08-19T01:22:14.359Z,52.48
2022-08-19T01:24:49.873Z,52.58
2022-08-19T01:27:17.829Z,52.81
2022-08-19T01:29:45.762Z,52.65
2022-08-19T01:32:33.533Z,52.44
2022-08-19T01:35:02.521Z,52.53
2022-08-19T01:37:30.421Z,52.29
2022-08-19T01:39:57.548Z,52.49
2022-08-19T01:42:30.298Z,52.57
2022-08-19T01:44:57.798Z,52.63
2022-08-19T01:47:25.152Z,52.35
2022-08-19T01:49:52.239Z,52.51
2022-08-19T01:52:19.279Z,52.87
2022-08-19T01:54:46.320Z,52.72
2022-08-19T01:57:13.355Z,53.09
2022-08-19T01:59:40.439Z,52.73
2022-08-19T02:02:09.786Z,52.88
2022-08-19T02:04:38.658Z,52.87
2022-08-19T02:07:05.701Z,52.83
2022-08-19T02:09:32.749Z,53.20
2022-08-19T02:11:59.808Z,53.08
2022-08-19T02:14:26.850Z,53.01
2022-08-19T02:16:53.898Z,53.05
2022-08-19T02:19:20.950Z,53.09
2022-08-19T02:21:48.063Z,52.76
2022-08-19T02:24:15.169Z,52.99
2022-08-19T02:26:42.240Z,52.96
2022-08-19T02:29:09.310Z,53.21
2022-08-19T02:31:36.901Z,53.21
2022-08-19T02:34:03.945Z,53.12
2022-08-19T02:36:31.325Z,53.18
2022-08-19T02:38:58.370Z,53.22
2022-08-19T02:41:26.919Z,53.00
2022-08-19T02:44:26.856Z,53.01
2022-08-19T02:46:41.422Z,53.28
2022-08-19T02:49:08.490Z,53.55
2022-08-19T02:51:35.535Z,53.30
2022-08-19T02:54:02.599Z,53.40
2022-08-19T02:56:29.643Z,53.64
2022-08-19T02:58:56.734Z,53.68
2022-08-19T03:01:23.833Z,53.25
2022-08-19T03:03:51.904Z,53.40
2022-08-19T03:06:19.334Z,53.35
2022-08-19T03:08:46.838Z,53.57
2022-08-19T03:11:13.898Z,53.37
2022-08-19T03:13:40.982Z,53.72
2022-08-19T03:16:08.102Z,53.59
2022-08-19T03:18:35.148Z,53.45
2022-08-19T03:21:02.367Z,53.26
2022-08-19T03:23:29.408Z,53.39
2022-08-19T03:25:58.346Z,53.52
2022-08-19T03:28:32.735Z,53.58
2022-08-19T03:31:00.102Z,53.40
2022-08-19T03:33:28.800Z,53.50
2022-08-19T03:35:55.864Z,53.60
2022-08-19T03:38:22.890Z,53.82
2022-08-19T03:40:49.930Z,53.62
2022-08-19T03:43:18.753Z,53.61
2022-08-19T03:45:45.808Z,53.58
2022-08-19T03:48:12.926Z,53.56
2022-08-19T03:50:39.967Z,53.41
2022-08-19T03:53:09.890Z,53.55
2022-08-19T03:55:36.996Z,53.77
2022-08-19T03:58:04.078Z,53.47
2022-08-19T04:00:31.133Z,53.27
2022-08-19T04:03:00.611Z,53.46
2022-08-19T04:05:29.419Z,53.62
2022-08-19T04:08:00.453Z,53.45
2022-08-19T04:10:27.760Z,53.67
2022-08-19T04:12:54.846Z,53.38
2022-08-19T04:15:21.957Z,53.68
2022-08-19T04:17:48.998Z,53.89
2022-08-19T04:20:16.053Z,53.87
2022-08-19T04:22:43.096Z,53.43
2022-08-19T04:25:10.142Z,53.86
2022-08-19T04:27:37.195Z,53.96
2022-08-19T04:30:04.238Z,53.46
2022-08-19T04:32:32.979Z,53.51
2022-08-19T04:35:02.789Z,53.87
2022-08-19T04:37:44.831Z,53.76
2022-08-19T04:40:30.753Z,53.76
2022-08-19T04:42:57.883Z,54.04
2022-08-19T04:45:24.935Z,53.61
2022-08-19T04:47:58.326Z,53.73
2022-08-19T04:50:26.243Z,53.88
2022-08-19T04:52:54.283Z,53.60
2022-08-19T04:55:21.611Z,53.56
2022-08-19T04:57:48.658Z,53.88
2022-08-19T05:00:15.779Z,53.76
2022-08-19T05:02:42.845Z,54.04
2022-08-19T05:05:09.956Z,53.60
2022-08-19T05:07:37.053Z,54.11
2022-08-19T05:10:04.086Z,54.04
2022-08-19T05:12:31.189Z,53.62
2022-08-19T05:14:58.388Z,53.78
2022-08-19T05:17:28.781Z,53.81
2022-08-19T05:20:15.321Z,53.83
2022-08-19T05:22:42.409Z,54.00
2022-08-19T05:25:12.931Z,53.50
2022-08-19T05:27:40.525Z,53.86
2022-08-19T05:30:07.573Z,53.74
2022-08-19T05:32:34.683Z,53.64
2022-08-19T05:35:01.732Z,53.56
2022-08-19T05:37:28.859Z,53.81
2022-08-19T05:39:56.012Z,53.67
2022-08-19T05:42:24.195Z,53.88
2022-08-19T05:44:51.440Z,53.87
2022-08-19T05:47:20.681Z,54.04
2022-08-19T05:49:47.977Z,54.10
2022-08-19T05:52:16.467Z,53.82
2022-08-19T05:54:51.306Z,53.47
2022-08-19T05:57:18.686Z,53.42
2022-08-19T05:59:52.741Z,53.86
2022-08-19T06:02:22.022Z,53.64
2022-08-19T06:04:49.093Z,53.71
2022-08-19T06:07:16.403Z,54.00
2022-08-19T06:09:49.092Z,53.83
2022-08-19T06:12:31.585Z,53.82
2022-08-19T06:15:01.188Z,53.55
2022-08-19T06:17:28.828Z,53.73
2022-08-19T06:19:55.875Z,53.89
2022-08-19T06:22:22.920Z,53.63
2022-08-19T06:24:53.638Z,53.71
2022-08-19T06:27:21.094Z,53.78
2022-08-19T06:29:48.183Z,53.83
2022-08-19T06:32:15.768Z,53.88
2022-08-19T06:34:43.000Z,54.13
2022-08-19T06:37:10.065Z,54.07
2022-08-19T06:39:37.209Z,53.72
2022-08-19T06:42:04.870Z,53.94
2022-08-19T06:44:35.343Z,53.88
2022-08-19T06:47:14.375Z,53.78
2022-08-19T06:49:42.050Z,53.96
2022-08-19T06:52:09.127Z,53.88
2022-08-19T06:54:55.465Z,53.93
2022-08-19T06:57:23.754Z,53.75
2022-08-19T06:59:50.828Z,53.96
2022-08-19T07:04:46.018Z,53.92
2022-08-19T07:07:21.408Z,53.43
2022-08-19T07:09:55.366Z,53.08
2022-08-19T07:12:27.189Z,53.08
2022-08-19T07:14:54.620Z,53.24
2022-08-19T07:17:21.815Z,52.70
2022-08-19T07:19:49.239Z,52.70
2022-08-19T07:22:17.326Z,52.78
2022-08-19T07:24:51.088Z,52.35
2022-08-19T07:27:18.587Z,52.85
2022-08-19T07:29:55.736Z,52.69
2022-08-19T07:32:23.540Z,53.12
2022-08-19T07:34:50.611Z,53.54
2022-08-19T07:37:19.255Z,53.71
2022-08-19T07:39:46.395Z,53.35
2022-08-19T07:42:14.661Z,53.41
2022-08-19T07:44:41.842Z,53.37
2022-08-19T07:47:47.131Z,53.40
2022-08-19T07:49:56.123Z,53.52
2022-08-19T07:52:23.414Z,53.62
2022-08-19T07:54:50.921Z,53.61
2022-08-19T07:57:18.032Z,53.59
2022-08-19T07:59:45.114Z,53.45
2022-08-19T08:02:12.205Z,53.73
2022-08-19T08:04:57.874Z,53.53
2022-08-19T08:07:46.420Z,53.60
2022-08-19T08:10:21.149Z,53.69
2022-08-19T08:13:08.559Z,54.04
2022-08-19T08:15:38.703Z,53.66
2022-08-19T08:18:09.093Z,53.63
2022-08-19T08:20:36.252Z,53.50
2022-08-19T08:23:22.301Z,53.82
2022-08-19T08:25:49.991Z,53.78
2022-08-19T08:28:17.668Z,53.68
2022-08-19T08:30:46.733Z,53.85
2022-08-19T08:33:17.316Z,54.02
2022-08-19T08:36:01.366Z,53.70
2022-08-19T08:38:38.748Z,53.52
2022-08-19T08:41:07.406Z,53.83
2022-08-19T08:43:34.479Z,54.04
2022-08-19T08:46:01.578Z,53.78
2022-08-19T08:48:28.637Z,53.81
2022-08-19T08:50:55.728Z,54.06
2022-08-19T08:53:29.806Z,53.53
2022-08-19T08:55:58.850Z,53.79
2022-08-19T08:58:25.904Z,53.68
2022-08-19T09:00:52.968Z,53.43
2022-08-19T09:03:20.242Z,53.85
2022-08-19T09:05:50.199Z,53.81
2022-08-19T09:08:19.303Z,53.71
2022-08-19T09:10:46.420Z,53.64
2022-08-19T09:13:13.518Z,53.61
2022-08-19T09:15:40.655Z,53.55
2022-08-19T09:18:07.797Z,53.73
2022-08-19T09:20:34.908Z,53.52
2022-08-19T09:23:02.340Z,53.45
2022-08-19T09:25:29.829Z,53.40
2022-08-19T09:28:02.559Z,53.26
2022-08-19T09:30:31.342Z,53.26
2022-08-19T09:32:58.592Z,53.41
2022-08-19T09:35:25.686Z,53.54
2022-08-19T09:37:57.565Z,53.44
2022-08-19T09:40:26.708Z,53.48
2022-08-19T09:42:54.204Z,53.49
2022-08-19T09:45:24.429Z,53.18
2022-08-19T09:47:53.860Z,53.10
2022-08-19T09:50:21.843Z,53.07
2022-08-19T09:52:56.967Z,52.89
2022-08-19T09:55:24.756Z,52.71
2022-08-19T09:57:59.218Z,52.66
2022-08-19T10:00:26.268Z,52.08
2022-08-19T10:02:53.351Z,52.21
2022-08-19T10:05:42.227Z,52.06
2022-08-19T10:08:13.118Z,51.70
2022-08-19T10:10:43.263Z,51.86
2022-08-19T10:13:11.347Z,51.17
2022-08-19T10:15:47.548Z,51.50
2022-08-19T10:18:15.636Z,51.69
2022-08-19T10:20:43.443Z,51.43
2022-08-19T10:23:10.552Z,51.55
2022-08-19T10:25:38.575Z,51.31
2022-08-19T10:28:06.920Z,51.26
2022-08-19T10:30:38.021Z,51.19
2022-08-19T10:33:08.554Z,51.04
2022-08-19T10:35:42.671Z,51.47
2022-08-19T10:38:32.427Z,51.24
2022-08-19T10:41:00.133Z,51.13
2022-08-19T10:43:27.222Z,51.28
2022-08-19T10:45:56.458Z,51.37
2022-08-19T10:48:23.553Z,50.88
2022-08-19T10:51:09.239Z,50.58
2022-08-19T10:53:36.366Z,50.72
2022-08-19T10:56:22.399Z,50.48
2022-08-19T10:58:49.963Z,50.64
2022-08-19T11:01:17.122Z,50.48
2022-08-19T11:03:46.469Z,50.59
2022-08-19T11:06:13.562Z,50.42
2022-08-19T11:08:41.190Z,50.70
2022-08-19T11:11:08.361Z,50.40
2022-08-19T11:13:38.198Z,50.43
2022-08-19T11:16:07.645Z,50.41
2022-08-19T11:18:37.390Z,50.04
2022-08-19T11:21:04.483Z,50.05
2022-08-19T11:23:31.526Z,50.60
2022-08-19T11:26:00.635Z,50.30
2022-08-19T11:28:27.747Z,50.36
2022-08-19T11:30:54.823Z,50.21
2022-08-19T11:33:21.907Z,50.26
2022-08-19T11:35:50.293Z,50.24
2022-08-19T11:38:17.380Z,50.52
2022-08-19T11:40:44.950Z,50.50
2022-08-19T11:43:11.998Z,50.33
2022-08-19T11:45:39.035Z,50.22
2022-08-19T11:48:06.091Z,50.18
2022-08-19T11:50:33.189Z,50.56
2022-08-19T11:53:01.176Z,50.02
2022-08-19T11:55:28.313Z,49.73
2022-08-19T11:57:55.499Z,50.09
2022-08-19T12:00:22.748Z,52.74
2022-08-19T12:02:49.792Z,55.25
2022-08-19T12:05:16.881Z,56.13
2022-08-19T12:07:44.774Z,57.24
2022-08-19T12:10:11.855Z,57.99
2022-08-19T12:12:43.626Z,57.98
2022-08-19T12:15:11.988Z,58.06
2022-08-19T12:17:39.124Z,59.61
2022-08-19T12:20:06.805Z,59.66
2022-08-19T12:22:33.863Z,60.27
2022-08-19T12:25:01.838Z,61.11
2022-08-19T12:27:40.154Z,61.01
2022-08-19T12:30:08.484Z,61.43
2022-08-19T12:32:35.562Z,61.49
2022-08-19T12:35:02.631Z,62.50
2022-08-19T12:37:31.062Z,62.38
2022-08-19T12:39:58.182Z,62.42
2022-08-19T12:42:25.336Z,62.60
2022-08-19T12:44:52.812Z,62.60
2022-08-19T12:47:19.944Z,62.84
2022-08-19T12:49:54.622Z,63.01
2022-08-19T12:52:22.954Z,63.04
2022-08-19T12:54:54.620Z,62.51
2022-08-19T12:57:22.045Z,60.97
2022-08-19T12:59:50.808Z,60.32
2022-08-19T13:02:17.853Z,59.59
2022-08-19T13:04:44.901Z,59.36
2022-08-19T13:07:12.001Z,58.96
2022-08-19T13:09:41.169Z,58.59
2022-08-19T13:12:08.814Z,58.02
2022-08-19T13:14:35.881Z,57.91
2022-08-19T13:17:03.931Z,57.89
2022-08-19T13:19:32.552Z,57.11
2022-08-19T13:22:00.427Z,57.30
2022-08-19T13:24:27.733Z,57.11
2022-08-19T13:27:00.619Z,56.80
2022-08-19T13:29:46.537Z,56.72
2022-08-19T13:32:32.202Z,56.47
2022-08-19T13:34:59.275Z,56.25
2022-08-19T13:37:44.914Z,56.47
2022-08-19T13:40:17.198Z,56.39
2022-08-19T13:42:48.434Z,56.82
2022-08-19T13:45:16.243Z,56.77
2022-08-19T13:47:45.121Z,56.60
2022-08-19T13:50:12.194Z,56.28
2022-08-19T13:52:39.288Z,56.01
2022-08-19T13:55:06.423Z,55.93
2022-08-19T13:57:33.468Z,56.07
2022-08-19T14:00:00.579Z,56.16
2022-08-19T14:02:27.619Z,55.90
2022-08-19T14:04:54.687Z,56.03
2022-08-19T14:07:24.507Z,56.09
2022-08-19T14:09:51.593Z,56.14
2022-08-19T14:12:18.665Z,55.62
2022-08-19T14:14:56.004Z,55.70
2022-08-19T14:17:23.049Z,55.86
2022-08-19T14:19:50.106Z,55.76
2022-08-19T14:22:22.123Z,55.98
2022-08-19T14:24:51.187Z,55.69
2022-08-19T14:27:18.283Z,55.80
2022-08-19T14:29:46.536Z,55.42
2022-08-19T14:32:16.960Z,55.35
2022-08-19T14:34:46.699Z,55.29
2022-08-19T14:37:15.417Z,55.61
2022-08-19T14:39:42.579Z,55.48
2022-08-19T14:42:11.416Z,55.64
2022-08-19T14:44:38.819Z,55.67
2022-08-19T14:47:07.944Z,55.69
2022-08-19T14:49:41.225Z,55.42
2022-08-19T14:52:10.087Z,55.27
2022-08-19T14:54:37.132Z,55.49
2022-08-19T14:57:04.171Z,55.50
2022-08-19T14:59:31.239Z,55.38
2022-08-19T15:01:58.386Z,55.24
2022-08-19T15:04:45.355Z,55.74
2022-08-19T15:07:12.477Z,55.74
2022-08-19T15:09:39.619Z,55.87
2022-08-19T15:12:06.729Z,56.14
2022-08-19T15:14:35.854Z,54.98
2022-08-19T15:17:04.167Z,55.52
2022-08-19T15:19:31.219Z,55.96
2022-08-19T15:21:58.311Z,55.94
2022-08-19T15:24:26.191Z,56.15
2022-08-19T15:26:53.442Z,55.22
2022-08-19T15:29:20.574Z,56.24
2022-08-19T15:31:47.683Z,55.96
2022-08-19T15:34:16.217Z,56.29
2022-08-19T15:36:43.335Z,55.95
2022-08-19T15:39:11.052Z,56.34
2022-08-19T15:41:39.526Z,54.79
2022-08-19T15:44:10.243Z,55.32
2022-08-19T15:46:37.888Z,55.23
2022-08-19T15:49:04.927Z,55.09
2022-08-19T15:51:32.069Z,55.15
2022-08-19T15:53:59.321Z,56.13
2022-08-19T15:56:27.506Z,55.99
2022-08-19T15:59:13.295Z,56.25
2022-08-19T16:01:58.850Z,56.34
2022-08-19T16:04:44.794Z,56.06
2022-08-19T16:07:12.727Z,55.93
2022-08-19T16:09:39.791Z,56.14
2022-08-19T16:12:06.842Z,55.74
2022-08-19T16:14:34.030Z,55.84
2022-08-19T16:17:01.962Z,55.59
2022-08-19T16:19:29.011Z,55.12
2022-08-19T16:21:56.063Z,55.43
2022-08-19T16:24:23.115Z,55.72
2022-08-19T16:26:50.175Z,56.16
2022-08-19T16:29:27.730Z,56.86
2022-08-19T16:32:02.786Z,57.27
2022-08-19T16:34:30.110Z,56.95
2022-08-19T16:36:57.149Z,56.22
2022-08-19T16:39:24.251Z,55.82
2022-08-19T16:41:51.632Z,55.46
2022-08-19T16:44:21.074Z,55.52
2022-08-19T16:46:55.717Z,55.42
2022-08-19T16:49:54.573Z,55.18
2022-08-19T16:52:14.848Z,55.14
2022-08-19T16:54:43.577Z,55.47
2022-08-19T16:57:12.008Z,55.10
2022-08-19T16:59:43.694Z,55.13
2022-08-19T17:02:16.185Z,54.66
2022-08-19T17:04:43.239Z,54.71
2022-08-19T17:07:10.408Z,54.78
2022-08-19T17:09:37.958Z,54.55
2022-08-19T17:12:05.159Z,54.58
2022-08-19T17:14:32.222Z,54.57
2022-08-19T17:16:59.254Z,54.23
2022-08-19T17:19:28.364Z,54.23
2022-08-19T17:21:57.762Z,54.61
2022-08-19T17:24:24.802Z,54.30
2022-08-19T17:26:52.194Z,53.92
2022-08-19T17:29:19.273Z,53.26
2022-08-19T17:31:47.552Z,53.74
2022-08-19T17:34:14.699Z,53.88
2022-08-19T17:36:41.739Z,53.96
2022-08-19T17:39:08.778Z,53.45
2022-08-19T17:41:35.866Z,53.41
2022-08-19T17:44:02.939Z,53.76
2022-08-19T17:46:30.457Z,53.65
2022-08-19T17:48:57.864Z,53.40
2022-08-19T17:51:25.172Z,53.43
2022-08-19T17:53:52.278Z,53.73
2022-08-19T17:56:19.319Z,53.53
2022-08-19T17:58:57.945Z,53.63
2022-08-19T18:01:27.558Z,53.63
2022-08-19T18:04:01.863Z,53.59
2022-08-19T18:06:28.902Z,53.61
2022-08-19T18:08:56.669Z,52.89
2022-08-19T18:11:23.706Z,53.51
2022-08-19T18:13:50.734Z,53.54
2022-08-19T18:16:18.840Z,53.28
2022-08-19T18:18:45.898Z,53.09
2022-08-19T18:21:12.982Z,52.90
2022-08-19T18:23:44.242Z,52.58
2022-08-19T18:26:12.756Z,52.91
2022-08-19T18:28:43.270Z,52.98
2022-08-19T18:31:17.279Z,52.95
2022-08-19T18:33:44.621Z,52.63
2022-08-19T18:36:12.036Z,52.70
2022-08-19T18:38:58.073Z,53.20
2022-08-19T18:41:43.815Z,52.84
2022-08-19T18:44:29.289Z,52.79
2022-08-19T18:47:14.975Z,52.60
2022-08-19T18:49:42.270Z,52.90
2022-08-19T18:52:09.385Z,52.81
2022-08-19T18:54:36.917Z,52.54
2022-08-19T18:57:05.724Z,52.74
2022-08-19T18:59:32.920Z,52.89
2022-08-19T19:02:00.010Z,52.63
2022-08-19T19:04:27.224Z,52.46
2022-08-19T19:06:54.323Z,53.00
2022-08-19T19:09:21.414Z,52.92
2022-08-19T19:11:48.464Z,52.75
2022-08-19T19:14:27.705Z,52.61
2022-08-19T19:17:02.875Z,52.89
2022-08-19T19:19:29.911Z,52.81
2022-08-19T19:21:58.487Z,52.88
2022-08-19T19:24:25.771Z,52.91
2022-08-19T19:26:52.905Z,53.01
2022-08-19T19:29:19.965Z,52.59
2022-08-19T19:31:47.004Z,52.86
2022-08-19T19:34:28.904Z,52.81
2022-08-19T19:36:57.019Z,52.81
2022-08-19T19:39:30.538Z,52.96
2022-08-19T19:42:12.638Z,52.62
2022-08-19T19:44:48.154Z,52.71
2022-08-19T19:47:15.693Z,52.65
2022-08-19T19:50:03.839Z,52.61
2022-08-19T19:52:31.345Z,52.61
2022-08-19T19:54:58.386Z,52.79
2022-08-19T19:57:26.750Z,52.81
2022-08-19T19:59:54.301Z,53.00
2022-08-19T20:02:22.078Z,52.82
2022-08-19T20:04:51.226Z,52.73
2022-08-19T20:07:18.258Z,52.90
2022-08-19T20:09:59.279Z,52.79
2022-08-19T20:12:27.255Z,53.14
2022-08-19T20:14:54.291Z,52.87
2022-08-19T20:17:21.340Z,53.06
2022-08-19T20:19:48.396Z,52.91
2022-08-19T20:22:15.621Z,53.23
2022-08-19T20:24:42.823Z,53.04
2022-08-19T20:27:10.792Z,53.05
2022-08-19T20:29:41.655Z,53.07
2022-08-19T20:32:11.513Z,53.12
2022-08-19T20:34:39.198Z,52.93
2022-08-19T20:37:09.335Z,53.33
2022-08-19T20:39:36.728Z,52.94
2022-08-19T20:42:03.818Z,53.46
2022-08-19T20:44:30.866Z,52.87
2022-08-19T20:47:02.957Z,53.20
2022-08-19T20:49:30.816Z,52.84
2022-08-19T20:51:58.513Z,53.09
2022-08-19T20:54:25.804Z,53.02
2022-08-19T20:56:52.978Z,52.84
2022-08-19T20:59:20.468Z,53.40
2022-08-19T21:01:47.568Z,53.01
2022-08-19T21:04:14.691Z,52.75
2022-08-19T21:06:45.271Z,52.72
2022-08-19T21:09:13.612Z,52.94
2022-08-19T21:11:40.671Z,52.73
2022-08-19T21:14:07.764Z,52.82
2022-08-19T21:16:34.942Z,52.49
2022-08-19T21:19:02.015Z,52.86
2022-08-19T21:21:29.134Z,52.95
2022-08-19T21:23:56.201Z,52.81
2022-08-19T21:26:24.378Z,52.44
2022-08-19T21:28:51.505Z,52.53
2022-08-19T21:31:18.611Z,52.47
2022-08-19T21:33:45.646Z,52.34
2022-08-19T21:36:12.762Z,52.36
2022-08-19T21:38:39.881Z,52.72
2022-08-19T21:41:06.955Z,52.27
2022-08-19T21:43:34.019Z,52.24
2022-08-19T21:46:01.411Z,52.50
2022-08-19T21:48:28.533Z,52.18
2022-08-19T21:50:55.595Z,52.10
2022-08-19T21:53:22.763Z,52.19
2022-08-19T21:55:53.399Z,52.27
2022-08-19T21:58:28.381Z,52.26
2022-08-19T22:00:57.814Z,52.09
2022-08-19T22:03:25.880Z,52.34
2022-08-19T22:05:53.019Z,52.30
2022-08-19T22:08:20.115Z,52.27
2022-08-19T22:10:49.084Z,52.20
2022-08-19T22:13:18.128Z,52.21
2022-08-19T22:15:45.209Z,52.17
2022-08-19T22:18:13.666Z,52.33
2022-08-19T22:20:40.724Z,52.16
2022-08-19T22:23:07.956Z,52.22
2022-08-19T22:25:35.501Z,52.12
2022-08-19T22:28:02.554Z,52.54
2022-08-19T22:30:32.389Z,52.34
2022-08-19T22:33:01.348Z,52.44
2022-08-19T22:35:31.513Z,52.48
2022-08-19T22:37:58.983Z,52.46
2022-08-19T22:40:26.053Z,52.53
2022-08-19T22:42:53.900Z,52.76
2022-08-19T22:45:21.627Z,52.57
2022-08-19T22:47:48.684Z,52.31
2022-08-19T22:50:15.778Z,52.64
2022-08-19T22:52:51.994Z,52.73
2022-08-19T22:55:19.591Z,52.94
2022-08-19T22:57:46.626Z,52.72
2022-08-19T23:00:14.700Z,53.15
2022-08-19T23:02:52.337Z,52.94
2022-08-19T23:05:22.148Z,53.07
2022-08-19T23:07:52.733Z,53.34
2022-08-19T23:10:27.152Z,53.13
2022-08-19T23:12:54.950Z,53.07
2022-08-19T23:15:25.782Z,53.38
2022-08-19T23:17:53.256Z,52.94
2022-08-19T23:20:20.319Z,53.19
2022-08-19T23:22:52.598Z,53.00
2022-08-19T23:25:19.640Z,52.91
2022-08-19T23:28:05.264Z,53.12
2022-08-19T23:30:32.268Z,53.39
2022-08-19T23:32:59.540Z,52.80
2022-08-19T23:35:26.620Z,52.91
2022-08-19T23:37:53.656Z,53.08
2022-08-19T23:40:21.877Z,53.34
2022-08-19T23:42:48.960Z,52.68
2022-08-19T23:45:16.008Z,52.92
2022-08-19T23:47:50.812Z,53.11
2022-08-19T23:50:20.220Z,52.83
2022-08-19T23:52:47.282Z,53.13
2022-08-19T23:55:14.377Z,53.22
2022-08-19T23:57:41.440Z,52.95
